Flight Track Log - Related Links

Times and Time Zones

All times are in EDT time to prevent confusion due to time zone crossing. See the UAL3779 flight status page for this flight to view local times or setup timezone preferences in your user account.

Time Position Orientation Groundspeed Altitude Reporting Facility
EDT Latitude Longitude Course Direction KTS MPH feet Rate Location/Type
Tue 07:09:52 AM 35.3789 -97.5944 159° South 138 159 2,000  Level Fort Worth Center
Tue 07:10:59 AM 35.3353 -97.5739 159° South 208 239 4,400 2,344 Climbing Fort Worth Center
Tue 07:13:04 AM 35.3919 -97.4042 68° East 298 343 9,500 2,413 Climbing Kansas City Center
Tue 07:14:03 AM 35.4458 -97.2972 58° Northeast 324 373 11,800 2,262 Climbing Kansas City Center
Tue 07:15:06 AM 35.5022 -97.1858 58° Northeast 368 423 14,100 2,439 Climbing Kansas City Center
Tue 07:16:06 AM 35.5614 -97.0719 57° Northeast 391 450 16,800 2,521 Climbing Kansas City Center
Tue 07:17:05 AM 35.6194 -96.9542 59° Northeast 400 460 19,100 2,218 Climbing Kansas City Center
Tue 07:18:05 AM 35.6942 -96.8053 58° Northeast 423 487 21,200 2,016 Climbing Kansas City Center
Tue 07:19:07 AM 35.7581 -96.6775 58° Northeast 435 501 23,200 1,839 Climbing Kansas City Center
Tue 07:20:09 AM 35.8222 -96.5483 58° Northeast 440 506 25,000 1,650 Climbing Kansas City Center
Tue 07:21:07 AM 35.8875 -96.4164 59° Northeast 448 516 26,500 1,289 Climbing Kansas City Center
Tue 07:22:10 AM 35.9467 -96.2969 59° Northeast 453 521 27,600 1,065 Climbing Kansas City Center
Tue 07:23:11 AM 36.0144 -96.1594 59° Northeast 464 534 28,700 1,300 Climbing Kansas City Center
Tue 07:24:10 AM 36.0831 -96.0206 59° Northeast 471 542 30,200 1,500 Climbing Kansas City Center
Tue 07:25:11 AM 36.1500 -95.8822 59° Northeast 470 541 31,700 1,525 Climbing Kansas City Center
Tue 07:26:12 AM 36.2233 -95.7328 59° Northeast 467 537 33,300 1,388 Climbing Kansas City Center
Tue 07:27:12 AM 36.2894 -95.5961 59° Northeast 464 534 34,500 1,150 Climbing Kansas City Center
Tue 07:28:12 AM 36.3567 -95.4572 59° Northeast 467 537 35,600 1,140 Climbing Kansas City Center
Tue 07:29:13 AM 36.4225 -95.3178 60° Northeast 469 540 36,800 1,082 Climbing Kansas City Center
Tue 07:30:14 AM 36.4894 -95.1789 59° Northeast 469 540 37,800 829 Climbing Kansas City Center
Tue 07:31:16 AM 36.5581 -95.0347 59° Northeast 469 540 38,500 585 Climbing Kansas City Center
Tue 07:32:17 AM 36.6244 -94.8936 60° Northeast 471 542 39,000 250 Climbing Kansas City Center
Tue 07:33:16 AM 36.6928 -94.7494 59° Northeast 478 550 39,000  Level Kansas City Center
Tue 07:34:17 AM 36.7636 -94.5994 59° Northeast 494 568 39,000  Level Kansas City Center
Tue 07:35:20 AM 36.8375 -94.4517 58° Northeast 500 575 39,000  Level Kansas City Center
Tue 07:36:20 AM 36.9389 -94.3386 42° Northeast 486 559 39,000  Level Kansas City Center
Tue 07:37:21 AM 37.0464 -94.2347 38° Northeast 487 560 39,000  Level Kansas City Center
Tue 07:38:22 AM 37.1528 -94.1289 38° Northeast 487 560 39,000  Level Kansas City Center
Tue 07:39:20 AM 37.2822 -94.0064 37° Northeast 486 559 39,000  Level Kansas City Center
Tue 07:40:21 AM 37.3886 -93.9003 38° Northeast 486 559 39,000  Level Kansas City Center
Tue 07:41:22 AM 37.4961 -93.7939 38° Northeast 488 562 39,000  Level Kansas City Center
Tue 07:42:26 AM 37.6028 -93.6858 39° Northeast 489 563 39,000  Level Kansas City Center
Tue 07:43:25 AM 37.7086 -93.5800 38° Northeast 486 559 39,000  Level Kansas City Center
Tue 07:44:27 AM 37.8125 -93.4742 39° Northeast 480 552 39,000  Level Kansas City Center
Tue 07:45:25 AM 37.9164 -93.3692 39° Northeast 476 548 39,000  Level Kansas City Center
Tue 07:46:27 AM 38.0194 -93.2650 39° Northeast 473 544 39,000  Level Kansas City Center
Tue 07:47:29 AM 38.1239 -93.1581 39° Northeast 476 548 39,000  Level Kansas City Center
Tue 07:48:30 AM 38.2328 -93.0506 38° Northeast 487 560 39,000  Level Kansas City Center
Tue 07:49:29 AM 38.3378 -92.9414 39° Northeast 485 558 39,000  Level Kansas City Center
Tue 07:50:31 AM 38.4436 -92.8311 39° Northeast 485 558 39,000  Level Kansas City Center
Tue 07:51:32 AM 38.5489 -92.7222 39° Northeast 484 557 39,000  Level Kansas City Center
Tue 07:52:34 AM 38.6525 -92.6142 39° Northeast 479 551 39,000  Level Kansas City Center
Tue 07:53:32 AM 38.7575 -92.5047 39° Northeast 481 554 39,000  Level Kansas City Center
Tue 07:54:33 AM 38.8622 -92.3956 39° Northeast 482 555 39,000  Level Kansas City Center
Tue 07:55:34 AM 38.9661 -92.2842 40° Northeast 483 556 39,000  Level Kansas City Center
Tue 07:56:36 AM 39.0722 -92.1761 38° Northeast 483 556 39,000  Level Kansas City Center
Tue 07:57:37 AM 39.1628 -92.0456 48° Northeast 485 558 39,000  Level Kansas City Center
Tue 07:58:39 AM 39.2514 -91.8867 54° Northeast 492 566 39,000  Level Kansas City Center
Tue 07:59:40 AM 39.3244 -91.7628 53° Northeast 492 566 39,000  Level Kansas City Center
Tue 08:00:39 AM 39.4142 -91.6039 54° Northeast 489 563 39,000  Level Kansas City Center
Tue 08:01:39 AM 39.4936 -91.4642 54° Northeast 485 558 39,000  Level Kansas City Center
Tue 08:02:42 AM 39.5717 -91.3256 54° Northeast 481 554 39,000  Level Kansas City Center
Tue 08:03:42 AM 39.6508 -91.1867 53° Northeast 478 550 39,000  Level Kansas City Center
Tue 08:04:43 AM 39.7497 -91.0750 41° Northeast 472 543 39,000 -194 Level Kansas City Center
Tue 08:05:46 AM 39.8517 -90.9642 40° Northeast 461 531 38,600 -1,073 Descending Kansas City Center
Tue 08:06:46 AM 39.9511 -90.8567 40° Northeast 463 533 36,800 -1,770 Descending Kansas City Center
Tue 08:07:48 AM 40.0522 -90.7450 40° Northeast 472 543 35,000 -1,672 Descending Kansas City Center
Tue 08:08:48 AM 40.1481 -90.6414 40° Northeast 480 552 33,400 -984 Descending Chicago Center
Tue 08:09:50 AM 40.2578 -90.5256 39° Northeast 472 543 33,000 -195 Descending Chicago Center
Tue 08:10:51 AM 40.3553 -90.4261 38° Northeast 448 516 33,000  Level Chicago Center
Tue 08:11:53 AM 40.4461 -90.3350 37° Northeast 415 478 33,000  Level Chicago Center
Tue 08:12:55 AM 40.5486 -90.2272 39° Northeast 412 474 33,000  Level Chicago Center
Tue 08:13:56 AM 40.6392 -90.1350 38° Northeast 412 474 33,000 -293 Level Chicago Center
Tue 08:14:58 AM 40.7303 -90.0431 37° Northeast 413 475 32,400 -484 Descending Chicago Center
Tue 08:16:00 AM 40.8200 -89.9494 38° Northeast 411 473 32,000 -1,415 Descending Chicago Center
Tue 08:17:01 AM 40.9256 -89.8361 39° Northeast 409 471 29,500 -2,195 Descending Chicago Center
Tue 08:18:03 AM 41.0083 -89.7494 38° Northeast 403 464 27,500 -1,984 Descending Chicago Center
Tue 08:19:05 AM 41.0944 -89.6589 38° Northeast 394 453 25,400 -1,854 Descending Chicago Center
Tue 08:20:06 AM 41.1700 -89.5628 44° Northeast 383 441 23,700 -1,659 Descending Chicago Center
Tue 08:21:08 AM 41.2194 -89.4439 61° Northeast 370 426 22,000 -1,645 Descending Chicago Center
Tue 08:22:10 AM 41.2664 -89.3275 62° Northeast 360 414 20,300 -1,659 Descending Chicago Center
Tue 08:23:11 AM 41.3131 -89.2114 62° Northeast 358 412 18,600 -1,902 Descending Chicago Center
Tue 08:24:13 AM 41.3644 -89.0753 63° Northeast 344 396 16,400 -1,887 Descending Chicago Center
Tue 08:25:15 AM 41.4106 -88.9642 61° Northeast 345 397 14,700 -1,220 Descending Chicago Center
Tue 08:26:16 AM 41.4544 -88.8575 61° Northeast 336 387 13,900 -341 Descending Chicago Center
Tue 08:27:18 AM 41.4939 -88.7536 63° Northeast 319 367 14,000 -293 Climbing Chicago Center
Tue 08:28:19 AM 41.5225 -88.6456 70° East 318 366 13,300 -634 Descending Chicago Center
Tue 08:29:21 AM 41.4692 -88.6097 153° Southeast 238 274 12,700 -629 Descending Chicago Center
Tue 08:30:23 AM 41.4381 -88.6767 238° Southwest 217 250 12,000 -341 Descending Chicago Center
Tue 08:31:24 AM 41.4064 -88.7572 242° Southwest 207 238 12,000  Level Chicago Center
Tue 08:32:26 AM 41.3783 -88.8278 242° Southwest 216 249 12,000 -49 Level Chicago Center
Tue 08:33:27 AM 41.4164 -88.8850 312° West 270 311 11,900 -293 Descending Chicago Center
Tue 08:34:29 AM 41.4625 -88.8058 52° Northeast 295 339 11,400 -439 Descending Chicago Center
Tue 08:35:30 AM 41.4761 -88.7078 79° East 272 313 11,000 -195 Descending Chicago Center
Tue 08:36:32 AM 41.4875 -88.6072 81° East 275 316 11,000  Level Chicago Center
Tue 08:37:34 AM 41.5064 -88.5111 75° East 274 315 11,000 -293 Level Chicago Center
Tue 08:38:35 AM 41.5797 -88.4372 37° Northeast 272 313 10,400 -732 Descending Chicago Center
Tue 08:39:37 AM 41.6419 -88.3744 37° Northeast 278 320 9,500 -976 Descending Chicago Center
Tue 08:40:38 AM 41.7150 -88.3558 11° North 267 307 8,400 -1,171 Descending Chicago Center
Tue 08:41:40 AM 41.7908 -88.3458 North 274 315 7,100 -878 Descending Chicago Center
Tue 08:42:41 AM 41.8575 -88.3547 354° North 247 284 6,600 -585 Descending Chicago Center
Tue 08:43:43 AM 41.8847 -88.4161 301° West 199 229 5,900 -774 Descending Chicago Center
Tue 08:44:45 AM 41.9139 -88.4639 309° West 212 244 5,000 -439 Descending Chicago Center
Tue 08:45:46 AM 41.9583 -88.4311 29° Northeast 210 242 5,000  Level Chicago Center
Tue 08:46:48 AM 41.9669 -88.3478 82° East 194 223 5,000  Level Chicago Center
Tue 08:47:49 AM 41.9656 -88.2753 91° East 198 228 5,000 -98 Level Chicago Center
Tue 08:48:51 AM 41.9678 -88.2028 88° East 194 223 4,800 -683 Descending Chicago Center
Tue 08:49:52 AM 41.9675 -88.1306 90° East 195 224 3,600 -1,073 Descending Chicago Center
Tue 08:50:54 AM 41.9686 -88.0594 89° East 193 222 2,600 -908 Descending Chicago Center
Tue 08:51:51 AM 41.9667 -88.0000 92° East 123 142 1,800 -769 Descending Chicago TRACON
Tue 08:52:51 AM 41.9667 -87.9500 90° East 124 143 1,100 -700 Descending Chicago TRACON
Tue 08:54:00 AM 41.9667 -87.9000 37° Northeast  Level FlightAware Approximate

Login

Don't have an account? Register now (free) for customized features, flight alerts, and more!